sensor_id;sensor_type;location;lat;lon;timestamp;P1;P2;P0
69688;PMS5003;56932;38.402;-96.176;2022-12-18T00:02:16;0;0;
69688;PMS5003;56932;38.402;-96.176;2022-12-18T00:04:41;0;0;
69688;PMS5003;56932;38.402;-96.176;2022-12-18T00:07:07;1;1;
69688;PMS5003;56932;38.402;-96.176;2022-12-18T00:09:32;0;0;
69688;PMS5003;56932;38.402;-96.176;2022-12-18T00:11:58;0;0;
69688;PMS5003;56932;38.402;-96.176;2022-12-18T00:14:24;0;0;
69688;PMS5003;56932;38.402;-96.176;2022-12-18T00:16:49;0;0;
69688;PMS5003;56932;38.402;-96.176;2022-12-18T00:19:15;1;1;
69688;PMS5003;56932;38.402;-96.176;2022-12-18T00:21:41;0;0;
69688;PMS5003;56932;38.402;-96.176;2022-12-18T00:24:06;2;0;
69688;PMS5003;56932;38.402;-96.176;2022-12-18T00:26:32;1;0;
69688;PMS5003;56932;38.402;-96.176;2022-12-18T00:28:58;1;0;
69688;PMS5003;56932;38.402;-96.176;2022-12-18T00:31:23;1;1;
69688;PMS5003;56932;38.402;-96.176;2022-12-18T00:33:48;1;1;
69688;PMS5003;56932;38.402;-96.176;2022-12-18T00:36:14;1;1;
69688;PMS5003;56932;38.402;-96.176;2022-12-18T00:38:39;1;1;
69688;PMS5003;56932;38.402;-96.176;2022-12-18T00:41:05;1;1;
69688;PMS5003;56932;38.402;-96.176;2022-12-18T00:43:30;1;1;
69688;PMS5003;56932;38.402;-96.176;2022-12-18T00:45:56;1;0;
69688;PMS5003;56932;38.402;-96.176;2022-12-18T00:48:21;1;0;
69688;PMS5003;56932;38.402;-96.176;2022-12-18T00:50:47;0;0;
69688;PMS5003;56932;38.402;-96.176;2022-12-18T00:53:12;0;0;
69688;PMS5003;56932;38.402;-96.176;2022-12-18T00:55:38;1;1;
69688;PMS5003;56932;38.402;-96.176;2022-12-18T00:58:03;0;0;
69688;PMS5003;56932;38.402;-96.176;2022-12-18T01:00:29;0;0;
69688;PMS5003;56932;38.402;-96.176;2022-12-18T01:02:54;1;1;
69688;PMS5003;56932;38.402;-96.176;2022-12-18T01:05:20;1;0;
69688;PMS5003;56932;38.402;-96.176;2022-12-18T01:07:46;1;1;
69688;PMS5003;56932;38.402;-96.176;2022-12-18T01:10:12;3;1;
69688;PMS5003;56932;38.402;-96.176;2022-12-18T01:12:37;2;1;
69688;PMS5003;56932;38.402;-96.176;2022-12-18T01:15:03;0;0;
69688;PMS5003;56932;38.402;-96.176;2022-12-18T01:17:28;1;1;
69688;PMS5003;56932;38.402;-96.176;2022-12-18T01:19:53;2;2;
69688;PMS5003;56932;38.402;-96.176;2022-12-18T01:22:19;3;1;
69688;PMS5003;56932;38.402;-96.176;2022-12-18T01:24:45;1;0;
69688;PMS5003;56932;38.402;-96.176;2022-12-18T01:27:10;0;0;
69688;PMS5003;56932;38.402;-96.176;2022-12-18T01:29:36;1;1;
69688;PMS5003;56932;38.402;-96.176;2022-12-18T01:32:01;0;0;
69688;PMS5003;56932;38.402;-96.176;2022-12-18T01:34:27;1;1;
69688;PMS5003;56932;38.402;-96.176;2022-12-18T01:36:52;1;0;
69688;PMS5003;56932;38.402;-96.176;2022-12-18T01:39:18;2;1;
69688;PMS5003;56932;38.402;-96.176;2022-12-18T01:41:44;1;1;
69688;PMS5003;56932;38.402;-96.176;2022-12-18T01:46:35;0;0;
69688;PMS5003;56932;38.402;-96.176;2022-12-18T01:49:00;0;0;
69688;PMS5003;56932;38.402;-96.176;2022-12-18T01:51:26;1;1;
69688;PMS5003;56932;38.402;-96.176;2022-12-18T01:53:51;0;0;
69688;PMS5003;56932;38.402;-96.176;2022-12-18T01:56:20;1;1;
69688;PMS5003;56932;38.402;-96.176;2022-12-18T01:58:46;0;0;
69688;PMS5003;56932;38.402;-96.176;2022-12-18T02:01:08;0;0;
69688;PMS5003;56932;38.402;-96.176;2022-12-18T02:03:34;1;1;
69688;PMS5003;56932;38.402;-96.176;2022-12-18T02:06:01;1;1;
69688;PMS5003;56932;38.402;-96.176;2022-12-18T02:08:26;0;0;
69688;PMS5003;56932;38.402;-96.176;2022-12-18T02:10:53;2;1;
69688;PMS5003;56932;38.402;-96.176;2022-12-18T02:13:18;1;0;
69688;PMS5003;56932;38.402;-96.176;2022-12-18T02:15:44;1;1;
69688;PMS5003;56932;38.402;-96.176;2022-12-18T02:18:08;1;1;
69688;PMS5003;56932;38.402;-96.176;2022-12-18T02:20:34;1;1;
69688;PMS5003;56932;38.402;-96.176;2022-12-18T02:23:03;1;1;
69688;PMS5003;56932;38.402;-96.176;2022-12-18T02:25:28;1;1;
69688;PMS5003;56932;38.402;-96.176;2022-12-18T02:27:50;1;1;
69688;PMS5003;56932;38.402;-96.176;2022-12-18T02:30:15;2;2;
69688;PMS5003;56932;38.402;-96.176;2022-12-18T02:32:42;1;1;
69688;PMS5003;56932;38.402;-96.176;2022-12-18T02:35:09;1;1;
69688;PMS5003;56932;38.402;-96.176;2022-12-18T02:37:32;2;0;
69688;PMS5003;56932;38.402;-96.176;2022-12-18T02:39:57;1;1;
69688;PMS5003;56932;38.402;-96.176;2022-12-18T02:42:23;3;2;
69688;PMS5003;56932;38.402;-96.176;2022-12-18T02:44:49;1;1;
69688;PMS5003;56932;38.402;-96.176;2022-12-18T02:47:14;2;2;
69688;PMS5003;56932;38.402;-96.176;2022-12-18T02:49:42;3;1;
69688;PMS5003;56932;38.402;-96.176;2022-12-18T02:52:07;0;0;
69688;PMS5003;56932;38.402;-96.176;2022-12-18T02:54:35;3;2;
69688;PMS5003;56932;38.402;-96.176;2022-12-18T02:56:56;0;0;
69688;PMS5003;56932;38.402;-96.176;2022-12-18T02:59:23;3;1;
69688;PMS5003;56932;38.402;-96.176;2022-12-18T03:01:49;0;0;
69688;PMS5003;56932;38.402;-96.176;2022-12-18T03:04:14;2;2;
69688;PMS5003;56932;38.402;-96.176;2022-12-18T03:06:39;1;1;
69688;PMS5003;56932;38.402;-96.176;2022-12-18T03:09:06;1;1;
69688;PMS5003;56932;38.402;-96.176;2022-12-18T03:11:30;3;2;
69688;PMS5003;56932;38.402;-96.176;2022-12-18T03:13:55;3;3;
69688;PMS5003;56932;38.402;-96.176;2022-12-18T03:16:22;1;1;
69688;PMS5003;56932;38.402;-96.176;2022-12-18T03:18:47;1;1;
69688;PMS5003;56932;38.402;-96.176;2022-12-18T03:21:11;2;2;
69688;PMS5003;56932;38.402;-96.176;2022-12-18T03:23:39;1;0;
69688;PMS5003;56932;38.402;-96.176;2022-12-18T03:26:04;1;0;
69688;PMS5003;56932;38.402;-96.176;2022-12-18T03:28:28;2;1;
69688;PMS5003;56932;38.402;-96.176;2022-12-18T03:30:55;0;0;
69688;PMS5003;56932;38.402;-96.176;2022-12-18T03:33:19;2;2;
69688;PMS5003;56932;38.402;-96.176;2022-12-18T03:35:44;1;1;
69688;PMS5003;56932;38.402;-96.176;2022-12-18T03:38:10;2;2;
69688;PMS5003;56932;38.402;-96.176;2022-12-18T03:40:38;0;0;
69688;PMS5003;56932;38.402;-96.176;2022-12-18T03:43:02;1;1;
69688;PMS5003;56932;38.402;-96.176;2022-12-18T03:45:28;0;0;
69688;PMS5003;56932;38.402;-96.176;2022-12-18T03:47:57;1;1;
69688;PMS5003;56932;38.402;-96.176;2022-12-18T03:50:18;2;2;
69688;PMS5003;56932;38.402;-96.176;2022-12-18T03:52:45;1;1;
69688;PMS5003;56932;38.402;-96.176;2022-12-18T03:55:09;4;4;
69688;PMS5003;56932;38.402;-96.176;2022-12-18T03:57:34;0;0;
69688;PMS5003;56932;38.402;-96.176;2022-12-18T04:00:01;1;1;
69688;PMS5003;56932;38.402;-96.176;2022-12-18T04:02:26;1;1;
69688;PMS5003;56932;38.402;-96.176;2022-12-18T04:04:51;3;2;
69688;PMS5003;56932;38.402;-96.176;2022-12-18T04:07:17;0;0;
69688;PMS5003;56932;38.402;-96.176;2022-12-18T04:09:42;1;1;
69688;PMS5003;56932;38.402;-96.176;2022-12-18T04:12:08;1;1;
69688;PMS5003;56932;38.402;-96.176;2022-12-18T04:14:33;1;1;
69688;PMS5003;56932;38.402;-96.176;2022-12-18T04:16:59;2;2;
69688;PMS5003;56932;38.402;-96.176;2022-12-18T04:19:24;3;3;
69688;PMS5003;56932;38.402;-96.176;2022-12-18T04:21:50;3;2;
69688;PMS5003;56932;38.402;-96.176;2022-12-18T04:24:15;2;2;
69688;PMS5003;56932;38.402;-96.176;2022-12-18T04:26:41;1;1;
69688;PMS5003;56932;38.402;-96.176;2022-12-18T04:29:07;1;1;
69688;PMS5003;56932;38.402;-96.176;2022-12-18T04:31:32;0;0;
69688;PMS5003;56932;38.402;-96.176;2022-12-18T04:33:58;1;1;
69688;PMS5003;56932;38.402;-96.176;2022-12-18T04:36:26;2;2;
69688;PMS5003;56932;38.402;-96.176;2022-12-18T04:38:49;4;3;
69688;PMS5003;56932;38.402;-96.176;2022-12-18T04:41:14;1;1;
69688;PMS5003;56932;38.402;-96.176;2022-12-18T04:43:40;3;3;
69688;PMS5003;56932;38.402;-96.176;2022-12-18T04:46:06;1;1;
69688;PMS5003;56932;38.402;-96.176;2022-12-18T04:48:31;2;1;
69688;PMS5003;56932;38.402;-96.176;2022-12-18T04:50:57;2;2;
69688;PMS5003;56932;38.402;-96.176;2022-12-18T04:53:22;2;2;
69688;PMS5003;56932;38.402;-96.176;2022-12-18T04:55:48;2;2;
69688;PMS5003;56932;38.402;-96.176;2022-12-18T04:58:14;1;1;
69688;PMS5003;56932;38.402;-96.176;2022-12-18T05:00:39;2;2;
69688;PMS5003;56932;38.402;-96.176;2022-12-18T05:03:05;2;2;
69688;PMS5003;56932;38.402;-96.176;2022-12-18T05:05:30;3;2;
69688;PMS5003;56932;38.402;-96.176;2022-12-18T05:07:56;2;2;
69688;PMS5003;56932;38.402;-96.176;2022-12-18T05:10:22;5;4;
69688;PMS5003;56932;38.402;-96.176;2022-12-18T05:12:47;4;3;
69688;PMS5003;56932;38.402;-96.176;2022-12-18T05:15:13;2;2;
69688;PMS5003;56932;38.402;-96.176;2022-12-18T05:17:38;2;2;
69688;PMS5003;56932;38.402;-96.176;2022-12-18T05:20:04;3;3;
69688;PMS5003;56932;38.402;-96.176;2022-12-18T05:22:29;2;2;
69688;PMS5003;56932;38.402;-96.176;2022-12-18T05:24:55;4;4;
69688;PMS5003;56932;38.402;-96.176;2022-12-18T05:27:20;3;3;
69688;PMS5003;56932;38.402;-96.176;2022-12-18T05:29:46;3;3;
69688;PMS5003;56932;38.402;-96.176;2022-12-18T05:32:12;3;3;
69688;PMS5003;56932;38.402;-96.176;2022-12-18T05:34:37;4;3;
69688;PMS5003;56932;38.402;-96.176;2022-12-18T05:37:03;2;2;
69688;PMS5003;56932;38.402;-96.176;2022-12-18T05:39:28;5;5;
69688;PMS5003;56932;38.402;-96.176;2022-12-18T05:41:54;4;3;
69688;PMS5003;56932;38.402;-96.176;2022-12-18T05:44:19;4;4;
69688;PMS5003;56932;38.402;-96.176;2022-12-18T05:46:45;6;5;
69688;PMS5003;56932;38.402;-96.176;2022-12-18T05:49:11;4;4;
69688;PMS5003;56932;38.402;-96.176;2022-12-18T05:51:36;5;3;
69688;PMS5003;56932;38.402;-96.176;2022-12-18T05:54:02;3;3;
69688;PMS5003;56932;38.402;-96.176;2022-12-18T05:56:27;5;3;
69688;PMS5003;56932;38.402;-96.176;2022-12-18T05:58:53;3;3;
69688;PMS5003;56932;38.402;-96.176;2022-12-18T06:01:19;4;3;
69688;PMS5003;56932;38.402;-96.176;2022-12-18T06:03:45;4;4;
69688;PMS5003;56932;38.402;-96.176;2022-12-18T06:06:13;3;3;
69688;PMS5003;56932;38.402;-96.176;2022-12-18T06:08:35;5;5;
69688;PMS5003;56932;38.402;-96.176;2022-12-18T06:11:01;3;3;
69688;PMS5003;56932;38.402;-96.176;2022-12-18T06:13:26;2;2;
69688;PMS5003;56932;38.402;-96.176;2022-12-18T06:15:52;5;3;
69688;PMS5003;56932;38.402;-96.176;2022-12-18T06:18:17;8;4;
69688;PMS5003;56932;38.402;-96.176;2022-12-18T06:20:43;4;3;
69688;PMS5003;56932;38.402;-96.176;2022-12-18T06:23:09;2;2;
69688;PMS5003;56932;38.402;-96.176;2022-12-18T06:25:37;3;3;
69688;PMS5003;56932;38.402;-96.176;2022-12-18T06:28:00;4;3;
69688;PMS5003;56932;38.402;-96.176;2022-12-18T06:30:25;3;3;
69688;PMS5003;56932;38.402;-96.176;2022-12-18T06:32:51;5;5;
69688;PMS5003;56932;38.402;-96.176;2022-12-18T06:35:16;2;2;
69688;PMS5003;56932;38.402;-96.176;2022-12-18T06:37:42;4;4;
69688;PMS5003;56932;38.402;-96.176;2022-12-18T06:40:08;3;2;
69688;PMS5003;56932;38.402;-96.176;2022-12-18T06:42:33;3;3;
69688;PMS5003;56932;38.402;-96.176;2022-12-18T06:44:59;3;2;
69688;PMS5003;56932;38.402;-96.176;2022-12-18T06:47:24;3;3;
69688;PMS5003;56932;38.402;-96.176;2022-12-18T06:49:50;3;3;
69688;PMS5003;56932;38.402;-96.176;2022-12-18T06:52:15;3;3;
69688;PMS5003;56932;38.402;-96.176;2022-12-18T06:54:41;5;3;
69688;PMS5003;56932;38.402;-96.176;2022-12-18T06:57:07;3;3;
69688;PMS5003;56932;38.402;-96.176;2022-12-18T06:59:32;2;2;
69688;PMS5003;56932;38.402;-96.176;2022-12-18T07:01:58;3;3;
69688;PMS5003;56932;38.402;-96.176;2022-12-18T07:04:27;3;3;
69688;PMS5003;56932;38.402;-96.176;2022-12-18T07:06:49;4;3;
69688;PMS5003;56932;38.402;-96.176;2022-12-18T07:09:15;3;2;
69688;PMS5003;56932;38.402;-96.176;2022-12-18T07:11:40;2;2;
69688;PMS5003;56932;38.402;-96.176;2022-12-18T07:14:06;6;4;
69688;PMS5003;56932;38.402;-96.176;2022-12-18T07:16:31;4;3;
69688;PMS5003;56932;38.402;-96.176;2022-12-18T07:18:57;2;2;
69688;PMS5003;56932;38.402;-96.176;2022-12-18T07:21:23;3;3;
69688;PMS5003;56932;38.402;-96.176;2022-12-18T07:23:48;3;3;
69688;PMS5003;56932;38.402;-96.176;2022-12-18T07:26:14;2;2;
69688;PMS5003;56932;38.402;-96.176;2022-12-18T07:28:40;5;3;
69688;PMS5003;56932;38.402;-96.176;2022-12-18T07:31:06;3;3;
69688;PMS5003;56932;38.402;-96.176;2022-12-18T07:33:30;3;3;
69688;PMS5003;56932;38.402;-96.176;2022-12-18T07:35:56;2;2;
69688;PMS5003;56932;38.402;-96.176;2022-12-18T07:38:22;5;4;
69688;PMS5003;56932;38.402;-96.176;2022-12-18T07:40:47;4;4;
69688;PMS5003;56932;38.402;-96.176;2022-12-18T07:43:13;3;3;
69688;PMS5003;56932;38.402;-96.176;2022-12-18T07:45:39;3;3;
69688;PMS5003;56932;38.402;-96.176;2022-12-18T07:48:04;3;2;
69688;PMS5003;56932;38.402;-96.176;2022-12-18T07:50:29;2;2;
69688;PMS5003;56932;38.402;-96.176;2022-12-18T07:52:54;3;3;
69688;PMS5003;56932;38.402;-96.176;2022-12-18T07:55:20;2;0;
69688;PMS5003;56932;38.402;-96.176;2022-12-18T07:57:46;2;2;
69688;PMS5003;56932;38.402;-96.176;2022-12-18T08:00:12;3;3;
69688;PMS5003;56932;38.402;-96.176;2022-12-18T08:02:37;2;2;
69688;PMS5003;56932;38.402;-96.176;2022-12-18T08:05:03;2;2;
69688;PMS5003;56932;38.402;-96.176;2022-12-18T08:07:28;2;2;
69688;PMS5003;56932;38.402;-96.176;2022-12-18T08:09:53;3;2;
69688;PMS5003;56932;38.402;-96.176;2022-12-18T08:12:19;4;3;
69688;PMS5003;56932;38.402;-96.176;2022-12-18T08:14:45;3;3;
69688;PMS5003;56932;38.402;-96.176;2022-12-18T08:17:10;4;3;
69688;PMS5003;56932;38.402;-96.176;2022-12-18T08:19:35;5;3;
69688;PMS5003;56932;38.402;-96.176;2022-12-18T08:22:01;2;2;
69688;PMS5003;56932;38.402;-96.176;2022-12-18T08:24:27;3;3;
69688;PMS5003;56932;38.402;-96.176;2022-12-18T08:26:52;2;2;
69688;PMS5003;56932;38.402;-96.176;2022-12-18T08:29:17;4;3;
69688;PMS5003;56932;38.402;-96.176;2022-12-18T08:31:43;3;2;
69688;PMS5003;56932;38.402;-96.176;2022-12-18T08:34:08;3;3;
69688;PMS5003;56932;38.402;-96.176;2022-12-18T08:36:34;3;3;
69688;PMS5003;56932;38.402;-96.176;2022-12-18T08:39:00;1;1;
69688;PMS5003;56932;38.402;-96.176;2022-12-18T08:41:25;3;3;
69688;PMS5003;56932;38.402;-96.176;2022-12-18T08:43:51;2;2;
69688;PMS5003;56932;38.402;-96.176;2022-12-18T08:46:17;4;3;
69688;PMS5003;56932;38.402;-96.176;2022-12-18T08:48:42;3;1;
69688;PMS5003;56932;38.402;-96.176;2022-12-18T08:51:07;2;2;
69688;PMS5003;56932;38.402;-96.176;2022-12-18T08:53:33;3;3;
69688;PMS5003;56932;38.402;-96.176;2022-12-18T08:55:59;1;0;
69688;PMS5003;56932;38.402;-96.176;2022-12-18T08:58:24;3;3;
69688;PMS5003;56932;38.402;-96.176;2022-12-18T09:00:50;3;3;
69688;PMS5003;56932;38.402;-96.176;2022-12-18T09:03:16;2;2;
69688;PMS5003;56932;38.402;-96.176;2022-12-18T09:05:41;3;3;
69688;PMS5003;56932;38.402;-96.176;2022-12-18T09:08:07;5;4;
69688;PMS5003;56932;38.402;-96.176;2022-12-18T09:10:32;3;2;
69688;PMS5003;56932;38.402;-96.176;2022-12-18T09:12:58;4;2;
69688;PMS5003;56932;38.402;-96.176;2022-12-18T09:15:23;5;5;
69688;PMS5003;56932;38.402;-96.176;2022-12-18T09:17:49;4;3;
69688;PMS5003;56932;38.402;-96.176;2022-12-18T09:20:14;5;3;
69688;PMS5003;56932;38.402;-96.176;2022-12-18T09:22:40;4;4;
69688;PMS5003;56932;38.402;-96.176;2022-12-18T09:25:05;3;2;
69688;PMS5003;56932;38.402;-96.176;2022-12-18T09:27:31;3;3;
69688;PMS5003;56932;38.402;-96.176;2022-12-18T09:29:56;2;2;
69688;PMS5003;56932;38.402;-96.176;2022-12-18T09:32:22;3;3;
69688;PMS5003;56932;38.402;-96.176;2022-12-18T09:34:48;2;2;
69688;PMS5003;56932;38.402;-96.176;2022-12-18T09:37:13;5;5;
69688;PMS5003;56932;38.402;-96.176;2022-12-18T09:39:38;3;1;
69688;PMS5003;56932;38.402;-96.176;2022-12-18T09:42:04;3;3;
69688;PMS5003;56932;38.402;-96.176;2022-12-18T09:44:30;4;2;
69688;PMS5003;56932;38.402;-96.176;2022-12-18T09:46:59;5;4;
69688;PMS5003;56932;38.402;-96.176;2022-12-18T09:49:21;4;3;
69688;PMS5003;56932;38.402;-96.176;2022-12-18T09:51:47;2;2;
69688;PMS5003;56932;38.402;-96.176;2022-12-18T09:54:12;4;4;
69688;PMS5003;56932;38.402;-96.176;2022-12-18T09:56:38;3;3;
69688;PMS5003;56932;38.402;-96.176;2022-12-18T09:59:03;2;2;
69688;PMS5003;56932;38.402;-96.176;2022-12-18T10:01:29;4;3;
69688;PMS5003;56932;38.402;-96.176;2022-12-18T10:03:54;4;4;
69688;PMS5003;56932;38.402;-96.176;2022-12-18T10:06:21;5;3;
69688;PMS5003;56932;38.402;-96.176;2022-12-18T10:08:46;1;1;
69688;PMS5003;56932;38.402;-96.176;2022-12-18T10:13:37;4;2;
69688;PMS5003;56932;38.402;-96.176;2022-12-18T10:16:06;3;3;
69688;PMS5003;56932;38.402;-96.176;2022-12-18T10:18:31;3;3;
69688;PMS5003;56932;38.402;-96.176;2022-12-18T10:20:54;5;3;
69688;PMS5003;56932;38.402;-96.176;2022-12-18T10:23:20;4;4;
69688;PMS5003;56932;38.402;-96.176;2022-12-18T10:25:47;4;2;
69688;PMS5003;56932;38.402;-96.176;2022-12-18T10:28:10;5;5;
69688;PMS5003;56932;38.402;-96.176;2022-12-18T10:30:35;2;2;
69688;PMS5003;56932;38.402;-96.176;2022-12-18T10:33:01;3;3;
69688;PMS5003;56932;38.402;-96.176;2022-12-18T10:35:26;2;2;
69688;PMS5003;56932;38.402;-96.176;2022-12-18T10:40:18;3;3;
69688;PMS5003;56932;38.402;-96.176;2022-12-18T10:42:43;3;3;
69688;PMS5003;56932;38.402;-96.176;2022-12-18T10:45:09;3;3;
69688;PMS5003;56932;38.402;-96.176;2022-12-18T10:47:34;2;2;
69688;PMS5003;56932;38.402;-96.176;2022-12-18T10:50:00;3;3;
69688;PMS5003;56932;38.402;-96.176;2022-12-18T10:52:25;4;4;
69688;PMS5003;56932;38.402;-96.176;2022-12-18T10:54:51;3;2;
69688;PMS5003;56932;38.402;-96.176;2022-12-18T10:57:28;4;2;
69688;PMS5003;56932;38.402;-96.176;2022-12-18T11:02:07;3;3;
69688;PMS5003;56932;38.402;-96.176;2022-12-18T11:04:33;2;2;
69688;PMS5003;56932;38.402;-96.176;2022-12-18T11:07:00;6;3;
69688;PMS5003;56932;38.402;-96.176;2022-12-18T11:09:25;2;2;
69688;PMS5003;56932;38.402;-96.176;2022-12-18T11:11:50;2;2;
69688;PMS5003;56932;38.402;-96.176;2022-12-18T11:14:17;3;3;
69688;PMS5003;56932;38.402;-96.176;2022-12-18T11:16:43;2;2;
69688;PMS5003;56932;38.402;-96.176;2022-12-18T11:19:10;2;2;
69688;PMS5003;56932;38.402;-96.176;2022-12-18T11:21:32;2;2;
69688;PMS5003;56932;38.402;-96.176;2022-12-18T11:23:58;1;1;
69688;PMS5003;56932;38.402;-96.176;2022-12-18T11:26:24;1;1;
69688;PMS5003;56932;38.402;-96.176;2022-12-18T11:28:49;1;1;
69688;PMS5003;56932;38.402;-96.176;2022-12-18T11:31:19;3;3;
69688;PMS5003;56932;38.402;-96.176;2022-12-18T11:33:40;3;3;
69688;PMS5003;56932;38.402;-96.176;2022-12-18T11:36:05;3;3;
69688;PMS5003;56932;38.402;-96.176;2022-12-18T11:38:32;4;3;
69688;PMS5003;56932;38.402;-96.176;2022-12-18T11:40:58;5;2;
69688;PMS5003;56932;38.402;-96.176;2022-12-18T11:43:25;3;3;
69688;PMS5003;56932;38.402;-96.176;2022-12-18T11:45:49;5;2;
69688;PMS5003;56932;38.402;-96.176;2022-12-18T11:48:14;3;3;
69688;PMS5003;56932;38.402;-96.176;2022-12-18T11:50:41;2;2;
69688;PMS5003;56932;38.402;-96.176;2022-12-18T11:53:05;1;1;
69688;PMS5003;56932;38.402;-96.176;2022-12-18T11:55:33;2;2;
69688;PMS5003;56932;38.402;-96.176;2022-12-18T11:57:57;2;2;
69688;PMS5003;56932;38.402;-96.176;2022-12-18T12:00:21;3;3;
69688;PMS5003;56932;38.402;-96.176;2022-12-18T12:02:57;1;1;
69688;PMS5003;56932;38.402;-96.176;2022-12-18T12:05:16;2;1;
69688;PMS5003;56932;38.402;-96.176;2022-12-18T12:07:40;2;2;
69688;PMS5003;56932;38.402;-96.176;2022-12-18T12:10:06;1;1;
69688;PMS5003;56932;38.402;-96.176;2022-12-18T12:12:33;3;2;
69688;PMS5003;56932;38.402;-96.176;2022-12-18T12:14:56;0;0;
69688;PMS5003;56932;38.402;-96.176;2022-12-18T12:17:22;1;1;
69688;PMS5003;56932;38.402;-96.176;2022-12-18T12:19:48;2;2;
69688;PMS5003;56932;38.402;-96.176;2022-12-18T12:22:13;1;1;
69688;PMS5003;56932;38.402;-96.176;2022-12-18T12:24:39;1;1;
69688;PMS5003;56932;38.402;-96.176;2022-12-18T12:27:04;1;1;
69688;PMS5003;56932;38.402;-96.176;2022-12-18T12:29:31;2;1;
69688;PMS5003;56932;38.402;-96.176;2022-12-18T12:31:57;1;1;
69688;PMS5003;56932;38.402;-96.176;2022-12-18T12:34:19;0;0;
69688;PMS5003;56932;38.402;-96.176;2022-12-18T12:36:49;1;1;
69688;PMS5003;56932;38.402;-96.176;2022-12-18T12:39:11;0;0;
69688;PMS5003;56932;38.402;-96.176;2022-12-18T12:41:36;5;3;
69688;PMS5003;56932;38.402;-96.176;2022-12-18T12:44:02;2;2;
69688;PMS5003;56932;38.402;-96.176;2022-12-18T12:46:26;1;1;
69688;PMS5003;56932;38.402;-96.176;2022-12-18T12:48:52;3;0;
69688;PMS5003;56932;38.402;-96.176;2022-12-18T12:51:19;1;1;
69688;PMS5003;56932;38.402;-96.176;2022-12-18T12:53:43;1;1;
69688;PMS5003;56932;38.402;-96.176;2022-12-18T12:56:10;1;1;
69688;PMS5003;56932;38.402;-96.176;2022-12-18T12:58:36;2;2;
69688;PMS5003;56932;38.402;-96.176;2022-12-18T13:01:02;1;1;
69688;PMS5003;56932;38.402;-96.176;2022-12-18T13:03:29;1;1;
69688;PMS5003;56932;38.402;-96.176;2022-12-18T13:05:52;2;2;
69688;PMS5003;56932;38.402;-96.176;2022-12-18T13:10:42;1;1;
69688;PMS5003;56932;38.402;-96.176;2022-12-18T13:13:08;0;0;
69688;PMS5003;56932;38.402;-96.176;2022-12-18T13:15:34;1;1;
69688;PMS5003;56932;38.402;-96.176;2022-12-18T13:20:24;2;1;
69688;PMS5003;56932;38.402;-96.176;2022-12-18T13:22:50;0;0;
69688;PMS5003;56932;38.402;-96.176;2022-12-18T13:32:32;1;1;
69688;PMS5003;56932;38.402;-96.176;2022-12-18T13:39:49;0;0;
69688;PMS5003;56932;38.402;-96.176;2022-12-18T13:44:40;0;0;
69688;PMS5003;56932;38.402;-96.176;2022-12-18T13:47:23;1;1;
69688;PMS5003;56932;38.402;-96.176;2022-12-18T13:49:35;1;1;
69688;PMS5003;56932;38.402;-96.176;2022-12-18T13:51:57;1;1;
69688;PMS5003;56932;38.402;-96.176;2022-12-18T13:54:24;2;2;
69688;PMS5003;56932;38.402;-96.176;2022-12-18T13:56:48;2;1;
69688;PMS5003;56932;38.402;-96.176;2022-12-18T13:59:15;1;1;
69688;PMS5003;56932;38.402;-96.176;2022-12-18T14:06:30;1;1;
69688;PMS5003;56932;38.402;-96.176;2022-12-18T14:08:56;2;2;
69688;PMS5003;56932;38.402;-96.176;2022-12-18T14:11:21;2;2;
69688;PMS5003;56932;38.402;-96.176;2022-12-18T14:13:47;1;1;
69688;PMS5003;56932;38.402;-96.176;2022-12-18T14:16:13;1;1;
69688;PMS5003;56932;38.402;-96.176;2022-12-18T14:18:43;3;1;
69688;PMS5003;56932;38.402;-96.176;2022-12-18T14:21:04;1;1;
69688;PMS5003;56932;38.402;-96.176;2022-12-18T14:23:30;2;2;
69688;PMS5003;56932;38.402;-96.176;2022-12-18T14:25:55;1;1;
69688;PMS5003;56932;38.402;-96.176;2022-12-18T14:28:20;1;1;
69688;PMS5003;56932;38.402;-96.176;2022-12-18T14:30:46;1;1;
69688;PMS5003;56932;38.402;-96.176;2022-12-18T14:33:12;3;3;
69688;PMS5003;56932;38.402;-96.176;2022-12-18T14:35:39;1;1;
69688;PMS5003;56932;38.402;-96.176;2022-12-18T14:40:28;1;1;
69688;PMS5003;56932;38.402;-96.176;2022-12-18T14:42:54;1;1;
69688;PMS5003;56932;38.402;-96.176;2022-12-18T14:47:45;1;1;
69688;PMS5003;56932;38.402;-96.176;2022-12-18T14:50:12;5;2;
69688;PMS5003;56932;38.402;-96.176;2022-12-18T14:52:36;0;0;
69688;PMS5003;56932;38.402;-96.176;2022-12-18T14:55:02;1;1;
69688;PMS5003;56932;38.402;-96.176;2022-12-18T14:57:28;2;2;
69688;PMS5003;56932;38.402;-96.176;2022-12-18T14:59:53;1;0;
69688;PMS5003;56932;38.402;-96.176;2022-12-18T15:02:19;1;1;
69688;PMS5003;56932;38.402;-96.176;2022-12-18T15:04:44;1;1;
69688;PMS5003;56932;38.402;-96.176;2022-12-18T15:07:12;2;1;
69688;PMS5003;56932;38.402;-96.176;2022-12-18T15:09:36;1;1;
69688;PMS5003;56932;38.402;-96.176;2022-12-18T15:12:01;1;1;
69688;PMS5003;56932;38.402;-96.176;2022-12-18T15:14:31;1;1;
69688;PMS5003;56932;38.402;-96.176;2022-12-18T15:16:52;2;1;
69688;PMS5003;56932;38.402;-96.176;2022-12-18T15:19:17;2;1;
69688;PMS5003;56932;38.402;-96.176;2022-12-18T15:21:43;4;1;
69688;PMS5003;56932;38.402;-96.176;2022-12-18T15:26:36;2;1;
69688;PMS5003;56932;38.402;-96.176;2022-12-18T15:28:59;2;0;
69688;PMS5003;56932;38.402;-96.176;2022-12-18T15:31:29;4;1;
69688;PMS5003;56932;38.402;-96.176;2022-12-18T15:36:16;2;2;
69688;PMS5003;56932;38.402;-96.176;2022-12-18T15:38:43;2;2;
69688;PMS5003;56932;38.402;-96.176;2022-12-18T15:41:11;1;1;
69688;PMS5003;56932;38.402;-96.176;2022-12-18T15:43:33;1;1;
69688;PMS5003;56932;38.402;-96.176;2022-12-18T15:45:58;1;1;
69688;PMS5003;56932;38.402;-96.176;2022-12-18T15:48:24;3;1;
69688;PMS5003;56932;38.402;-96.176;2022-12-18T15:50:50;4;2;
69688;PMS5003;56932;38.402;-96.176;2022-12-18T15:53:15;5;4;
69688;PMS5003;56932;38.402;-96.176;2022-12-18T15:55:41;23;15;
69688;PMS5003;56932;38.402;-96.176;2022-12-18T15:58:07;42;21;
69688;PMS5003;56932;38.402;-96.176;2022-12-18T16:00:33;50;34;
69688;PMS5003;56932;38.402;-96.176;2022-12-18T16:02:58;89;67;
69688;PMS5003;56932;38.402;-96.176;2022-12-18T16:05:23;159;125;
69688;PMS5003;56932;38.402;-96.176;2022-12-18T16:07:49;193;152;
69688;PMS5003;56932;38.402;-96.176;2022-12-18T16:10:14;211;169;
69688;PMS5003;56932;38.402;-96.176;2022-12-18T16:12:39;253;215;
69688;PMS5003;56932;38.402;-96.176;2022-12-18T16:15:06;292;249;
69688;PMS5003;56932;38.402;-96.176;2022-12-18T16:17:30;356;294;
69688;PMS5003;56932;38.402;-96.176;2022-12-18T16:19:56;340;293;
69688;PMS5003;56932;38.402;-96.176;2022-12-18T16:22:22;337;293;
69688;PMS5003;56932;38.402;-96.176;2022-12-18T16:24:47;308;271;
69688;PMS5003;56932;38.402;-96.176;2022-12-18T16:27:12;303;267;
69688;PMS5003;56932;38.402;-96.176;2022-12-18T16:29:38;299;259;
69688;PMS5003;56932;38.402;-96.176;2022-12-18T16:32:03;290;244;
69688;PMS5003;56932;38.402;-96.176;2022-12-18T16:34:29;260;224;
69688;PMS5003;56932;38.402;-96.176;2022-12-18T16:36:55;242;209;
69688;PMS5003;56932;38.402;-96.176;2022-12-18T16:39:20;223;196;
69688;PMS5003;56932;38.402;-96.176;2022-12-18T16:41:46;209;187;
69688;PMS5003;56932;38.402;-96.176;2022-12-18T16:44:11;205;179;
69688;PMS5003;56932;38.402;-96.176;2022-12-18T16:46:36;198;170;